createdAt,value
2018-11-26T00:00:15.540Z,25.23
2018-11-26T00:02:44.505Z,19.10
2018-11-26T00:05:13.025Z,14.63
2018-11-26T00:07:41.492Z,21.27
2018-11-26T00:10:21.237Z,24.57
2018-11-26T00:12:49.800Z,18.10
2018-11-26T00:15:18.370Z,17.53
2018-11-26T00:17:46.865Z,17.50
2018-11-26T00:20:15.298Z,19.20
2018-11-26T00:22:43.784Z,16.10
2018-11-26T00:25:12.205Z,16.10
2018-11-26T00:27:40.753Z,17.70
2018-11-26T00:30:09.197Z,15.40
2018-11-26T00:32:37.685Z,16.80
2018-11-26T00:35:06.162Z,21.70
2018-11-26T00:37:34.586Z,17.53
2018-11-26T00:40:03.119Z,19.37
2018-11-26T00:42:31.722Z,18.07
2018-11-26T00:45:00.143Z,19.50
2018-11-26T00:47:28.650Z,17.70
2018-11-26T00:49:56.998Z,13.90
2018-11-26T00:52:25.442Z,20.83
2018-11-26T00:54:53.986Z,14.13
2018-11-26T00:57:22.435Z,21.07
2018-11-26T00:59:50.940Z,14.70
2018-11-26T01:02:19.310Z,19.50
2018-11-26T01:04:47.782Z,19.20
2018-11-26T01:07:16.411Z,17.63
2018-11-26T01:09:44.768Z,16.87
2018-11-26T01:12:13.231Z,15.97
2018-11-26T01:14:41.888Z,15.87
2018-11-26T01:17:10.410Z,17.43
2018-11-26T01:19:38.801Z,18.20
2018-11-26T01:22:07.302Z,15.83
2018-11-26T01:24:35.906Z,14.10
2018-11-26T01:27:04.453Z,16.10
2018-11-26T01:29:32.894Z,12.27
2018-11-26T01:32:01.361Z,14.13
2018-11-26T01:34:29.930Z,12.00
2018-11-26T01:36:58.441Z,18.83
2018-11-26T01:39:26.905Z,13.60
2018-11-26T01:41:55.408Z,21.57
2018-11-26T01:44:23.781Z,11.87
2018-11-26T01:46:52.220Z,13.90
2018-11-26T01:49:20.653Z,17.50
2018-11-26T01:51:49.119Z,13.37
2018-11-26T01:54:17.629Z,14.17
2018-11-26T01:56:46.069Z,15.17
2018-11-26T01:59:14.509Z,14.50
2018-11-26T02:01:43.155Z,14.43
2018-11-26T02:04:11.623Z,13.90
2018-11-26T02:06:40.158Z,14.00
2018-11-26T02:09:09.275Z,17.70
2018-11-26T02:11:37.735Z,15.07
2018-11-26T02:14:06.281Z,15.97
2018-11-26T02:16:34.734Z,14.53
2018-11-26T02:19:03.206Z,13.50
2018-11-26T02:21:31.926Z,17.13
2018-11-26T02:24:00.317Z,14.13
2018-11-26T02:26:28.694Z,15.10
2018-11-26T02:28:57.245Z,13.63
2018-11-26T02:31:25.666Z,19.37
2018-11-26T02:33:54.157Z,17.80
2018-11-26T02:36:22.660Z,18.00
2018-11-26T02:38:51.210Z,17.23
2018-11-26T02:41:19.655Z,13.07
2018-11-26T02:43:48.077Z,13.00
2018-11-26T02:46:16.524Z,17.70
2018-11-26T02:48:45.009Z,15.10
2018-11-26T02:51:13.424Z,13.43
2018-11-26T02:53:41.898Z,18.47
2018-11-26T02:56:10.462Z,16.30
2018-11-26T02:58:39.138Z,21.10
2018-11-26T03:01:07.717Z,19.60
2018-11-26T03:03:36.124Z,18.00
2018-11-26T03:06:04.567Z,17.93
2018-11-26T03:08:33.115Z,13.73
2018-11-26T03:11:03.223Z,17.47
2018-11-26T03:13:31.659Z,19.50
2018-11-26T03:16:00.102Z,19.93
2018-11-26T03:18:28.548Z,19.87
2018-11-26T03:20:57.089Z,18.13
2018-11-26T03:23:25.828Z,13.87
2018-11-26T03:25:54.320Z,14.87
2018-11-26T03:28:22.777Z,13.83
2018-11-26T03:30:51.217Z,14.37
2018-11-26T03:33:19.751Z,12.43
2018-11-26T03:35:48.169Z,18.30
2018-11-26T03:38:22.029Z,14.63
2018-11-26T03:40:50.415Z,18.47
2018-11-26T03:43:18.815Z,12.90
2018-11-26T03:45:47.198Z,12.77
2018-11-26T03:48:15.643Z,17.17
2018-11-26T03:50:44.177Z,15.67
2018-11-26T03:53:12.602Z,13.50
2018-11-26T03:55:41.075Z,13.33
2018-11-26T03:58:09.514Z,16.40
2018-11-26T04:00:37.901Z,16.57
2018-11-26T04:03:06.317Z,13.90
2018-11-26T04:05:34.742Z,13.50
2018-11-26T04:08:03.126Z,16.27
2018-11-26T04:10:31.599Z,14.53
2018-11-26T04:13:00.096Z,15.00
2018-11-26T04:15:28.574Z,18.50
2018-11-26T04:17:57.002Z,14.00
2018-11-26T04:20:25.432Z,14.33
2018-11-26T04:22:53.892Z,16.30
2018-11-26T04:25:22.425Z,13.40
2018-11-26T04:27:50.844Z,12.60
2018-11-26T04:30:19.241Z,15.17
2018-11-26T04:32:47.742Z,12.83
2018-11-26T04:35:16.303Z,13.27
2018-11-26T04:37:44.729Z,15.13
2018-11-26T04:40:13.198Z,14.50
2018-11-26T04:42:41.632Z,14.80
2018-11-26T04:45:10.704Z,12.53
2018-11-26T04:47:39.374Z,20.90
2018-11-26T04:50:09.724Z,12.37
2018-11-26T04:52:38.161Z,14.87
2018-11-26T04:55:07.208Z,15.23
2018-11-26T04:57:42.071Z,17.23
2018-11-26T05:00:05.382Z,11.33
2018-11-26T05:02:33.756Z,16.93
2018-11-26T05:05:02.186Z,17.80
2018-11-26T05:07:30.741Z,16.17
2018-11-26T05:09:59.095Z,13.50
2018-11-26T05:12:27.506Z,12.53
2018-11-26T05:14:55.853Z,13.70
2018-11-26T05:17:24.312Z,10.63
2018-11-26T05:19:52.745Z,14.57
2018-11-26T05:22:21.169Z,12.00
2018-11-26T05:24:49.633Z,14.00
2018-11-26T05:27:18.102Z,13.10
2018-11-26T05:29:46.510Z,15.20
2018-11-26T05:32:14.981Z,20.13
2018-11-26T05:34:43.415Z,14.47
2018-11-26T05:37:11.926Z,16.90
2018-11-26T05:39:40.379Z,18.30
2018-11-26T05:42:09.046Z,19.50
2018-11-26T05:44:37.504Z,16.70
2018-11-26T05:47:06.060Z,17.13
2018-11-26T05:49:34.573Z,16.87
2018-11-26T05:52:02.901Z,17.37
2018-11-26T05:54:31.303Z,15.33
2018-11-26T05:56:59.719Z,13.27
2018-11-26T05:59:28.109Z,13.27
2018-11-26T06:02:08.829Z,13.50
2018-11-26T06:04:37.313Z,10.87
2018-11-26T06:07:06.088Z,14.73
2018-11-26T06:09:34.547Z,11.07
2018-11-26T06:12:03.278Z,15.43
2018-11-26T06:14:31.760Z,13.37
2018-11-26T06:17:00.289Z,13.43
2018-11-26T06:19:28.749Z,11.63
2018-11-26T06:21:57.324Z,13.53
2018-11-26T06:24:25.777Z,11.40
2018-11-26T06:26:54.392Z,14.13
2018-11-26T06:29:22.887Z,10.63
2018-11-26T06:31:51.442Z,13.50
2018-11-26T06:34:19.877Z,10.87
2018-11-26T06:36:48.425Z,13.83
2018-11-26T06:39:16.858Z,12.97
2018-11-26T06:41:45.564Z,12.83
2018-11-26T06:44:13.969Z,13.27
2018-11-26T06:46:42.453Z,9.60
2018-11-26T06:49:10.896Z,16.17
2018-11-26T06:51:39.354Z,13.57
2018-11-26T06:54:07.715Z,13.10
2018-11-26T06:56:36.355Z,14.43
2018-11-26T06:59:04.917Z,13.40
2018-11-26T07:01:33.428Z,10.53
2018-11-26T07:04:01.888Z,12.97
2018-11-26T07:06:30.361Z,13.50
2018-11-26T07:08:58.955Z,12.60
2018-11-26T07:11:27.501Z,13.37
2018-11-26T07:13:55.967Z,13.60
2018-11-26T07:16:24.498Z,15.47
2018-11-26T07:18:53.201Z,13.37
2018-11-26T07:21:21.755Z,13.73
2018-11-26T07:23:50.222Z,13.07
2018-11-26T07:26:18.762Z,14.17
2018-11-26T07:28:47.266Z,10.97
2018-11-26T07:31:15.800Z,13.93
2018-11-26T07:33:44.238Z,11.77
2018-11-26T07:36:17.356Z,13.50
2018-11-26T07:38:45.742Z,13.37
2018-11-26T07:41:14.169Z,11.93
2018-11-26T07:43:42.546Z,12.60
2018-11-26T07:46:11.103Z,15.07
2018-11-26T07:48:39.546Z,12.10
2018-11-26T07:51:07.965Z,12.20
2018-11-26T07:53:36.381Z,17.13
2018-11-26T07:56:04.893Z,11.50
2018-11-26T07:58:33.254Z,16.10
2018-11-26T08:01:01.674Z,15.20
2018-11-26T08:03:30.377Z,13.10
2018-11-26T08:05:58.903Z,11.37
2018-11-26T08:08:27.336Z,15.40
2018-11-26T08:10:55.765Z,14.33
2018-11-26T08:13:24.284Z,13.07
2018-11-26T08:15:52.789Z,12.47
2018-11-26T08:18:21.217Z,9.83
2018-11-26T08:20:49.845Z,14.13
2018-11-26T08:23:18.233Z,16.70
2018-11-26T08:25:50.337Z,12.03
2018-11-26T08:28:18.740Z,13.27
2018-11-26T08:30:47.171Z,11.23
2018-11-26T08:33:15.660Z,9.97
2018-11-26T08:35:44.075Z,12.00
2018-11-26T08:38:17.741Z,12.40
2018-11-26T08:40:53.377Z,13.90
2018-11-26T08:43:27.285Z,16.23
2018-11-26T08:46:02.068Z,12.07
2018-11-26T08:48:30.914Z,13.30
2018-11-26T08:51:01.529Z,13.77
2018-11-26T08:53:37.745Z,11.47
2018-11-26T08:56:06.409Z,14.60
2018-11-26T08:58:34.985Z,11.20
2018-11-26T09:01:06.109Z,14.50
2018-11-26T09:03:40.778Z,10.27
2018-11-26T09:06:09.288Z,17.83
2018-11-26T09:08:38.070Z,17.03
2018-11-26T09:11:08.357Z,15.13
2018-11-26T09:13:37.893Z,12.47
2018-11-26T09:16:06.442Z,14.67
2018-11-26T09:18:34.912Z,11.40
2018-11-26T09:21:03.440Z,12.67
2018-11-26T09:23:32.174Z,12.97
2018-11-26T09:26:00.614Z,16.77
2018-11-26T09:28:29.130Z,10.83
2018-11-26T09:31:01.374Z,14.27
2018-11-26T09:33:29.906Z,13.83
2018-11-26T09:36:08.532Z,10.93
2018-11-26T09:38:37.124Z,12.27
2018-11-26T09:41:06.040Z,12.73
2018-11-26T09:43:34.896Z,13.77
2018-11-26T09:46:03.392Z,12.97
2018-11-26T09:48:32.138Z,14.37
2018-11-26T09:51:00.637Z,14.30
2018-11-26T09:53:29.602Z,18.10
2018-11-26T09:55:58.114Z,14.80
2018-11-26T09:58:26.572Z,17.10
2018-11-26T10:00:55.100Z,14.07
2018-11-26T10:03:23.573Z,12.50
2018-11-26T10:05:52.049Z,15.13
2018-11-26T10:08:20.566Z,9.63
2018-11-26T10:10:49.098Z,15.63
2018-11-26T10:13:17.571Z,11.00
2018-11-26T10:15:46.009Z,13.80
2018-11-26T10:18:14.471Z,16.60
2018-11-26T10:20:43.129Z,15.53
2018-11-26T10:23:11.606Z,14.50
2018-11-26T10:25:39.944Z,14.47
2018-11-26T10:28:08.480Z,14.33
2018-11-26T10:30:36.838Z,16.77
2018-11-26T10:33:05.548Z,12.53
2018-11-26T10:35:33.945Z,10.93
2018-11-26T10:38:02.397Z,17.50
2018-11-26T10:40:30.823Z,13.67
2018-11-26T10:42:59.568Z,10.23
2018-11-26T10:45:28.018Z,12.50
2018-11-26T10:47:56.496Z,13.17
2018-11-26T10:50:26.006Z,8.87
2018-11-26T10:52:55.863Z,9.17
2018-11-26T10:55:25.663Z,16.13
2018-11-26T10:57:54.131Z,12.70
2018-11-26T11:00:27.922Z,9.23
2018-11-26T11:02:56.740Z,13.43
2018-11-26T11:05:25.230Z,9.47
2018-11-26T11:07:57.314Z,10.53
2018-11-26T11:10:32.036Z,13.17
2018-11-26T11:13:04.033Z,11.63
2018-11-26T11:15:32.611Z,11.30
2018-11-26T11:18:01.123Z,10.33
2018-11-26T11:20:30.084Z,10.57
2018-11-26T11:22:58.540Z,9.90
2018-11-26T11:25:26.962Z,9.77
2018-11-26T11:27:56.440Z,11.83
2018-11-26T11:30:27.354Z,6.10
2018-11-26T11:32:55.762Z,7.80
2018-11-26T11:35:24.165Z,10.67
2018-11-26T11:37:53.431Z,9.83
2018-11-26T11:40:24.866Z,5.63
2018-11-26T11:42:53.383Z,9.13
2018-11-26T11:45:22.335Z,6.87
2018-11-26T11:47:53.094Z,11.67
2018-11-26T11:50:22.189Z,6.83
2018-11-26T11:53:06.485Z,7.60
2018-11-26T11:55:34.914Z,7.13
2018-11-26T11:58:03.557Z,9.80
2018-11-26T12:00:35.197Z,8.27
2018-11-26T12:03:07.219Z,8.67
2018-11-26T12:05:35.623Z,6.03
2018-11-26T12:08:04.131Z,8.37
2018-11-26T12:10:32.599Z,8.87
2018-11-26T12:13:01.059Z,10.87
2018-11-26T12:15:38.031Z,8.97
2018-11-26T12:18:07.303Z,7.20
2018-11-26T12:20:36.539Z,8.87
2018-11-26T12:23:05.044Z,5.47
2018-11-26T12:25:33.534Z,7.43
2018-11-26T12:28:02.046Z,7.83
2018-11-26T12:30:31.847Z,6.63
2018-11-26T12:33:10.078Z,8.40
2018-11-26T12:35:38.531Z,6.17
2018-11-26T12:38:07.271Z,6.13
2018-11-26T12:40:35.685Z,5.53
2018-11-26T12:43:07.823Z,7.03
2018-11-26T12:45:36.244Z,7.20
2018-11-26T12:48:04.839Z,6.63
2018-11-26T12:50:33.235Z,6.40
2018-11-26T12:53:01.809Z,8.23
2018-11-26T12:55:30.245Z,10.53
2018-11-26T12:57:59.053Z,7.40
2018-11-26T13:00:28.639Z,7.27
2018-11-26T13:03:02.643Z,7.30
2018-11-26T13:05:34.237Z,5.07
2018-11-26T13:08:02.767Z,4.03
2018-11-26T13:10:31.299Z,5.17
2018-11-26T13:13:00.410Z,9.13
2018-11-26T13:15:29.410Z,5.07
2018-11-26T13:17:57.821Z,5.40
2018-11-26T13:20:28.438Z,6.17
2018-11-26T13:22:56.967Z,5.40
2018-11-26T13:25:27.662Z,5.63
2018-11-26T13:28:02.614Z,6.27
2018-11-26T13:30:32.245Z,5.57
2018-11-26T13:33:01.969Z,5.17
2018-11-26T13:35:30.456Z,6.33
2018-11-26T13:37:58.984Z,6.57
2018-11-26T13:40:27.476Z,5.23
2018-11-26T13:42:55.927Z,5.03
2018-11-26T13:45:30.207Z,6.47
2018-11-26T13:47:58.694Z,5.00
2018-11-26T13:50:29.822Z,4.23
2018-11-26T13:52:58.406Z,2.60
2018-11-26T13:55:27.039Z,4.40
2018-11-26T13:57:55.715Z,4.97
2018-11-26T14:00:24.227Z,3.70
2018-11-26T14:02:52.673Z,3.90
2018-11-26T14:05:21.095Z,5.10
2018-11-26T14:07:49.607Z,2.43
2018-11-26T14:10:21.326Z,7.00
2018-11-26T14:12:55.970Z,4.27
2018-11-26T14:15:24.498Z,2.67
2018-11-26T14:17:52.915Z,4.40
2018-11-26T14:20:21.413Z,3.43
2018-11-26T14:22:49.992Z,1.77
2018-11-26T14:25:19.052Z,2.50
2018-11-26T14:27:48.276Z,2.87
2018-11-26T14:30:21.178Z,2.10
2018-11-26T14:32:49.563Z,2.87
2018-11-26T14:35:18.122Z,2.03
2018-11-26T14:37:48.034Z,1.77
2018-11-26T14:40:20.857Z,2.70
2018-11-26T14:42:49.526Z,1.90
2018-11-26T14:45:17.908Z,2.27
2018-11-26T14:47:46.267Z,1.80
2018-11-26T14:50:16.698Z,4.27
2018-11-26T14:52:46.376Z,2.47
2018-11-26T14:55:16.648Z,3.03
2018-11-26T14:57:45.087Z,2.17
2018-11-26T15:00:16.401Z,1.40
2018-11-26T15:02:44.955Z,2.67
2018-11-26T15:05:13.699Z,1.57
2018-11-26T15:07:42.082Z,2.17
2018-11-26T15:10:11.774Z,1.93
2018-11-26T15:12:40.586Z,2.17
2018-11-26T15:15:12.966Z,1.80
2018-11-26T15:17:42.183Z,2.47
2018-11-26T15:20:21.378Z,2.13
2018-11-26T15:22:50.292Z,3.00
2018-11-26T15:25:21.923Z,3.20
2018-11-26T15:27:51.073Z,2.57
2018-11-26T15:30:20.472Z,2.87
2018-11-26T15:32:49.020Z,3.50
2018-11-26T15:35:18.671Z,2.77
2018-11-26T15:37:47.134Z,2.70
2018-11-26T15:40:17.316Z,3.27
2018-11-26T15:42:45.699Z,1.87
2018-11-26T15:45:16.462Z,1.53
2018-11-26T15:47:45.014Z,3.87
2018-11-26T15:50:13.503Z,2.90
2018-11-26T15:52:42.015Z,2.87
2018-11-26T15:55:12.707Z,2.47
2018-11-26T15:57:41.293Z,3.40
2018-11-26T16:00:12.191Z,2.50
2018-11-26T16:02:40.685Z,2.13
2018-11-26T16:05:11.022Z,3.00
2018-11-26T16:07:39.654Z,3.73
2018-11-26T16:10:09.900Z,1.90
2018-11-26T16:12:38.363Z,2.37
2018-11-26T16:15:11.978Z,3.73
2018-11-26T16:17:43.697Z,2.77
2018-11-26T16:20:13.895Z,2.13
2018-11-26T16:22:42.475Z,2.77
2018-11-26T16:25:12.414Z,4.13
2018-11-26T16:27:40.853Z,1.53
2018-11-26T16:30:11.784Z,2.60
2018-11-26T16:32:40.242Z,3.63
2018-11-26T16:35:12.291Z,2.10
2018-11-26T16:37:40.638Z,2.00
2018-11-26T16:40:11.882Z,2.97
2018-11-26T16:42:40.319Z,2.03
2018-11-26T16:45:16.535Z,4.30
2018-11-26T16:47:45.841Z,2.37
2018-11-26T16:50:15.322Z,3.13
2018-11-26T16:52:43.830Z,1.70
2018-11-26T16:55:13.242Z,2.40
2018-11-26T16:57:41.774Z,4.07
2018-11-26T17:00:13.006Z,2.43
2018-11-26T17:02:41.422Z,2.53
2018-11-26T17:05:12.790Z,5.20
2018-11-26T17:07:41.271Z,3.17
2018-11-26T17:10:10.444Z,3.07
2018-11-26T17:12:39.187Z,3.53
2018-11-26T17:15:10.826Z,2.30
2018-11-26T17:17:39.351Z,1.97
2018-11-26T17:20:09.443Z,4.50
2018-11-26T17:22:38.131Z,3.13
2018-11-26T17:25:08.410Z,4.17
2018-11-26T17:27:37.274Z,2.57
2018-11-26T17:30:10.262Z,2.07
2018-11-26T17:32:38.798Z,4.67
2018-11-26T17:35:08.039Z,7.47
2018-11-26T17:37:36.492Z,3.47
2018-11-26T17:40:07.294Z,3.20
2018-11-26T17:42:35.654Z,2.23
2018-11-26T17:45:04.123Z,2.30
2018-11-26T17:47:32.749Z,1.27
2018-11-26T17:50:01.258Z,2.00
2018-11-26T17:52:29.762Z,1.60
2018-11-26T17:54:58.252Z,4.57
2018-11-26T17:57:26.666Z,1.50
2018-11-26T17:59:55.347Z,4.23
2018-11-26T18:02:23.819Z,2.37
2018-11-26T18:04:52.247Z,4.00
2018-11-26T18:07:20.700Z,3.73
2018-11-26T18:09:49.187Z,2.50
2018-11-26T18:12:17.594Z,1.80
2018-11-26T18:14:46.091Z,5.03
2018-11-26T18:17:14.727Z,2.80
2018-11-26T18:19:43.196Z,1.60
2018-11-26T18:22:12.023Z,1.80
2018-11-26T18:24:41.555Z,2.10
2018-11-26T18:27:10.303Z,2.57
2018-11-26T18:29:38.956Z,2.60
2018-11-26T18:32:07.713Z,1.97
2018-11-26T18:34:37.193Z,2.63
2018-11-26T18:37:06.148Z,4.60
2018-11-26T18:39:34.774Z,3.37
2018-11-26T18:42:03.446Z,1.73
2018-11-26T18:44:31.938Z,2.80
2018-11-26T18:47:00.419Z,2.10
2018-11-26T18:49:29.002Z,2.77
2018-11-26T18:51:59.682Z,3.37
2018-11-26T18:54:28.187Z,3.37
2018-11-26T18:56:56.680Z,4.60
2018-11-26T18:59:27.303Z,1.70
2018-11-26T19:01:55.739Z,1.73
2018-11-26T19:04:24.550Z,3.23
2018-11-26T19:06:53.062Z,1.90
2018-11-26T19:09:21.469Z,2.33
2018-11-26T19:11:49.903Z,3.07
2018-11-26T19:14:20.676Z,1.83
2018-11-26T19:16:51.120Z,2.23
2018-11-26T19:19:19.851Z,1.30
2018-11-26T19:21:48.547Z,1.60
2018-11-26T19:24:17.290Z,1.93
2018-11-26T19:26:45.745Z,1.37
2018-11-26T19:29:18.175Z,1.73
2018-11-26T19:31:46.713Z,2.03
2018-11-26T19:34:16.068Z,2.23
2018-11-26T19:36:44.536Z,1.93
2018-11-26T19:39:13.048Z,2.73
2018-11-26T19:41:55.122Z,1.70
2018-11-26T19:44:24.696Z,1.50
2018-11-26T19:46:54.246Z,4.67
2018-11-26T19:49:32.711Z,3.87
2018-11-26T19:52:10.967Z,3.90
2018-11-26T19:54:39.428Z,3.07
2018-11-26T19:57:08.232Z,1.73
2018-11-26T19:59:39.182Z,4.83
2018-11-26T20:02:08.854Z,3.20
2018-11-26T20:04:47.135Z,2.20
2018-11-26T20:07:15.597Z,1.80
2018-11-26T20:09:45.068Z,1.93
2018-11-26T20:12:13.541Z,5.50
2018-11-26T20:14:42.164Z,2.90
2018-11-26T20:17:10.628Z,2.10
2018-11-26T20:19:39.121Z,3.77
2018-11-26T20:22:07.717Z,2.27
2018-11-26T20:24:36.334Z,2.10
2018-11-26T20:27:04.721Z,4.37
2018-11-26T20:29:33.399Z,2.43
2018-11-26T20:32:01.834Z,2.53
2018-11-26T20:34:31.347Z,2.87
2018-11-26T20:37:01.132Z,2.43
2018-11-26T20:39:29.745Z,3.73
2018-11-26T20:42:07.754Z,3.53
2018-11-26T20:44:36.435Z,2.80
2018-11-26T20:47:06.153Z,4.13
2018-11-26T20:49:34.534Z,4.07
2018-11-26T20:52:04.198Z,1.73
2018-11-26T20:54:32.664Z,3.70
2018-11-26T20:57:01.321Z,2.77
2018-11-26T20:59:29.932Z,2.97
2018-11-26T21:01:58.468Z,2.27
2018-11-26T21:04:26.875Z,5.30
2018-11-26T21:06:56.523Z,1.83
2018-11-26T21:09:24.991Z,3.47
2018-11-26T21:11:57.426Z,2.83
2018-11-26T21:14:26.046Z,3.60
2018-11-26T21:16:54.412Z,2.83
2018-11-26T21:19:22.979Z,3.27
2018-11-26T21:21:51.512Z,3.30
2018-11-26T21:24:20.177Z,3.63
2018-11-26T21:26:48.747Z,4.07
2018-11-26T21:29:17.287Z,4.13
2018-11-26T21:31:45.940Z,4.73
2018-11-26T21:34:15.614Z,3.33
2018-11-26T21:36:44.202Z,2.77
2018-11-26T21:39:12.732Z,4.60
2018-11-26T21:41:41.301Z,2.53
2018-11-26T21:44:09.783Z,3.00
2018-11-26T21:46:38.337Z,2.47
2018-11-26T21:49:06.754Z,2.83
2018-11-26T21:51:35.360Z,2.40
2018-11-26T21:54:03.902Z,3.10
2018-11-26T21:56:32.327Z,4.63
2018-11-26T21:59:06.723Z,2.03
2018-11-26T22:01:35.107Z,2.83
2018-11-26T22:04:03.616Z,2.97
2018-11-26T22:06:32.224Z,4.27
2018-11-26T22:09:00.634Z,2.67
2018-11-26T22:11:30.424Z,3.07
2018-11-26T22:13:57.542Z,4.37
2018-11-26T22:16:25.919Z,5.00
2018-11-26T22:18:55.386Z,3.67
2018-11-26T22:21:23.878Z,2.73
2018-11-26T22:23:52.320Z,3.67
2018-11-26T22:26:20.731Z,5.87
2018-11-26T22:28:49.230Z,3.90
2018-11-26T22:31:17.635Z,5.23
2018-11-26T22:33:46.859Z,3.43
2018-11-26T22:36:15.295Z,2.97
2018-11-26T22:38:43.717Z,4.77
2018-11-26T22:41:12.145Z,2.10
2018-11-26T22:43:40.624Z,3.60
2018-11-26T22:46:16.034Z,3.77
2018-11-26T22:48:43.204Z,3.50
2018-11-26T22:51:11.771Z,3.63
2018-11-26T22:53:40.341Z,2.63
2018-11-26T22:56:08.815Z,4.47
2018-11-26T22:58:37.301Z,3.90
2018-11-26T23:01:06.668Z,4.70
2018-11-26T23:03:35.240Z,4.43
2018-11-26T23:06:03.748Z,4.00
2018-11-26T23:08:32.231Z,2.67
2018-11-26T23:11:00.865Z,3.23
2018-11-26T23:13:29.300Z,5.43
2018-11-26T23:15:57.736Z,1.87
2018-11-26T23:18:26.160Z,2.80
2018-11-26T23:20:54.787Z,3.67
2018-11-26T23:23:23.548Z,3.73
2018-11-26T23:25:51.986Z,3.90
2018-11-26T23:28:20.618Z,2.80
2018-11-26T23:30:49.093Z,3.37
2018-11-26T23:33:17.579Z,3.77
2018-11-26T23:35:46.213Z,6.13
2018-11-26T23:38:24.844Z,4.30
2018-11-26T23:40:53.313Z,2.67
2018-11-26T23:43:21.781Z,4.27
2018-11-26T23:45:50.202Z,3.30
2018-11-26T23:48:18.613Z,2.13
2018-11-26T23:50:47.048Z,2.13
2018-11-26T23:53:15.446Z,4.63
2018-11-26T23:55:43.862Z,2.80
2018-11-26T23:58:12.359Z,4.23
